Terminal Aerodrome Forecast
Issued by NWS Brownsville, TX

Home | Current Version | Previous Version | Text Only | Print | Product List | Glossary On
Versions: 1 2 3 4 5 6 7 8 9 10 11 12 13 14 15 16 17
000
FTUS44 KBRO 280231 AAA
TAFBRO
TAF AMD
KBRO 280231Z 2803/2824 12008KT P6SM BKN015
      TEMPO 2803/2807 SCT015
     FM281300 16012G18KT P6SM SCT015 BKN025
     FM281500 15015G25KT P6SM SCT025 BKN035
     FM281800 16024G32KT P6SM SCT040 SCT250=

USA.gov is the U.S. government's official web portal to all federal, state and local government web resources and services.